Time;durP1;ratioP1;P1;durP2;ratioP2;P2;SDS_P1;SDS_P2;PMS_P1;PMS_P2;Temp;Humidity;BMP_temperature;BMP_pressure;BME280_temperature;BME280_humidity;BME280_pressure;Samples;Min_cycle;Max_cycle;Signal;HPM_P1;HPM_P2
2022/07/03 00:01:23;;;;;;;6.38;1.23;;;21.90;99.90;;;;;;4161472;28;20677;-44
2022/07/03 00:03:44;;;;;;;2.63;1.00;;;21.80;99.90;;;;;;4162196;28;20544;-45
2022/07/03 00:06:05;;;;;;;2.80;0.90;;;21.70;99.90;;;;;;4162683;28;20087;-45
2022/07/03 00:08:26;;;;;;;3.00;2.13;;;21.60;99.90;;;;;;4162344;28;20418;-45
2022/07/03 00:10:47;;;;;;;3.78;1.00;;;21.60;99.90;;;;;;4162201;28;20072;-46
2022/07/03 00:13:08;;;;;;;5.70;1.52;;;21.50;99.90;;;;;;4162677;28;20133;-46
2022/07/03 00:15:29;;;;;;;4.15;0.90;;;21.50;99.90;;;;;;4162456;28;20115;-45
2022/07/03 00:17:50;;;;;;;4.97;1.10;;;21.40;99.90;;;;;;4162097;28;20129;-44
2022/07/03 00:20:10;;;;;;;2.70;0.90;;;21.30;99.90;;;;;;4162014;28;20448;-45
2022/07/03 00:22:36;;;;;;;3.28;0.90;;;21.30;99.90;;;;;;4162395;28;20056;-45
2022/07/03 00:25:06;;;;;;;3.92;1.27;;;21.30;99.90;;;;;;4162313;28;20064;-44
2022/07/03 00:27:30;;;;;;;4.88;1.05;;;21.10;99.90;;;;;;4162498;28;20048;-45
2022/07/03 00:29:55;;;;;;;3.83;1.17;;;21.20;99.90;;;;;;4162178;28;20095;-45
2022/07/03 00:32:24;;;;;;;8.02;1.17;;;20.90;99.90;;;;;;4162214;28;20582;-46
2022/07/03 00:34:46;;;;;;;3.35;1.27;;;20.80;99.90;;;;;;4162277;28;20103;-44
2022/07/03 00:37:08;;;;;;;7.38;1.30;;;20.70;99.90;;;;;;4162343;28;20581;-44
2022/07/03 00:39:29;;;;;;;2.38;1.08;;;20.60;99.90;;;;;;4162275;28;20056;-44
2022/07/03 00:42:01;;;;;;;2.20;1.10;;;20.40;99.90;;;;;;4162306;28;20057;-45
2022/07/03 00:44:22;;;;;;;2.43;1.20;;;20.50;99.90;;;;;;4161894;28;20044;-45
2022/07/03 00:46:47;;;;;;;4.00;1.52;;;20.60;99.90;;;;;;4162114;28;20044;-44
2022/07/03 00:49:10;;;;;;;7.25;1.10;;;20.60;99.90;;;;;;4162215;28;20128;-44
2022/07/03 00:51:37;;;;;;;4.68;1.58;;;20.70;99.90;;;;;;4162119;28;20075;-45
2022/07/03 00:54:01;;;;;;;4.85;0.90;;;20.70;99.90;;;;;;4162402;28;20103;-45
2022/07/03 00:56:27;;;;;;;3.80;2.03;;;20.70;99.90;;;;;;4163983;28;20056;-45
2022/07/03 00:58:52;;;;;;;3.80;1.10;;;20.60;99.90;;;;;;4164138;28;20103;-45
2022/07/03 01:01:18;;;;;;;8.25;1.67;;;20.60;99.90;;;;;;4164886;28;20095;-45
2022/07/03 01:03:43;;;;;;;1.67;0.90;;;20.60;99.90;;;;;;4165510;28;20103;-45
2022/07/03 01:06:12;;;;;;;3.08;1.38;;;20.70;99.90;;;;;;4165205;28;20053;-45
2022/07/03 01:08:47;;;;;;;5.13;1.00;;;20.70;99.90;;;;;;4164961;28;20087;-44
2022/07/03 01:11:11;;;;;;;2.75;1.20;;;20.60;99.90;;;;;;4165210;28;20048;-45
2022/07/03 01:13:56;;;;;;;3.10;1.05;;;20.50;99.90;;;;;;4165303;28;20112;-45
2022/07/03 01:16:41;;;;;;;2.35;0.90;;;20.50;99.90;;;;;;4164201;28;20177;-45
2022/07/03 01:19:20;;;;;;;5.13;1.83;;;20.50;99.90;;;;;;4165188;28;20056;-45
2022/07/03 01:21:56;;;;;;;2.17;1.00;;;20.40;99.90;;;;;;4164803;28;20137;-45
2022/07/03 01:24:35;;;;;;;4.30;1.10;;;20.40;99.90;;;;;;4164891;28;20107;-44
2022/07/03 01:27:02;;;;;;;4.43;1.40;;;20.50;99.90;;;;;;4157159;28;20052;-44
2022/07/03 01:29:37;;;;;;;3.28;1.20;;;20.40;99.90;;;;;;4148602;28;20049;-44
2022/07/03 01:32:00;;;;;;;3.17;1.60;;;20.40;99.90;;;;;;4148441;28;20061;-45
2022/07/03 01:34:25;;;;;;;2.08;0.95;;;20.40;99.90;;;;;;4148626;28;20069;-45
2022/07/03 01:36:48;;;;;;;1.17;1.05;;;20.20;99.90;;;;;;4158129;28;20587;-45
2022/07/03 01:39:12;;;;;;;1.98;1.10;;;20.10;99.90;;;;;;4161359;28;20118;-45
2022/07/03 01:41:37;;;;;;;4.28;1.38;;;20.00;99.90;;;;;;4161272;28;20063;-44
2022/07/03 01:44:01;;;;;;;5.57;1.23;;;20.00;99.90;;;;;;4158216;28;20478;-45
2022/07/03 01:46:28;;;;;;;5.05;1.00;;;20.00;99.90;;;;;;4154839;28;20084;-45
2022/07/03 01:48:51;;;;;;;4.18;1.10;;;19.80;99.90;;;;;;4148121;28;20640;-46
2022/07/03 01:51:16;;;;;;;2.15;1.20;;;19.70;99.90;;;;;;4148501;28;20104;-45
2022/07/03 01:53:44;;;;;;;4.13;1.30;;;19.60;99.90;;;;;;4148014;28;20104;-45
2022/07/03 01:56:07;;;;;;;2.95;1.02;;;19.60;99.90;;;;;;4148043;28;20060;-46
2022/07/03 01:58:28;;;;;;;4.72;1.48;;;19.50;99.90;;;;;;4147944;28;20049;-44
2022/07/03 02:01:16;;;;;;;4.78;1.25;;;19.60;99.90;;;;;;4148213;28;20096;-45
2022/07/03 02:03:46;;;;;;;2.90;1.70;;;19.70;99.90;;;;;;4147732;28;20096;-44
2022/07/03 02:06:47;;;;;;;4.53;1.20;;;19.60;99.90;;;;;;4148244;28;20057;-45
2022/07/03 02:09:10;;;;;;;2.05;1.50;;;19.70;99.90;;;;;;4130300;28;20104;-46
2022/07/03 02:11:47;;;;;;;4.68;1.35;;;19.80;99.90;;;;;;4157824;28;20081;-45
2022/07/03 02:14:22;;;;;;;7.32;1.83;;;19.60;99.90;;;;;;4164000;28;20056;-45
2022/07/03 02:16:49;;;;;;;1.48;1.17;;;19.60;99.90;;;;;;4164269;28;20082;-45
2022/07/03 02:19:14;;;;;;;2.17;1.85;;;19.70;99.90;;;;;;4163981;28;20055;-47
2022/07/03 02:21:36;;;;;;;3.35;1.95;;;19.80;99.90;;;;;;4164341;28;20056;-44
2022/07/03 02:24:18;;;;;;;1.67;1.58;;;19.70;99.90;;;;;;4163765;28;20559;-44
2022/07/03 02:26:41;;;;;;;2.13;1.30;;;19.70;99.90;;;;;;4163894;28;20068;-44
2022/07/03 02:29:04;;;;;;;3.38;1.35;;;19.60;99.90;;;;;;4163820;28;20048;-45
2022/07/03 02:31:29;;;;;;;2.90;1.35;;;19.50;99.90;;;;;;4164149;28;20320;-45
2022/07/03 02:33:55;;;;;;;2.75;1.52;;;19.40;99.90;;;;;;4163962;28;20052;-45
2022/07/03 02:36:20;;;;;;;1.20;1.10;;;19.30;99.90;;;;;;4163656;28;20421;-46
2022/07/03 02:38:45;;;;;;;3.00;1.50;;;19.40;99.90;;;;;;4163804;28;20056;-44
2022/07/03 02:41:11;;;;;;;2.17;1.45;;;19.20;99.90;;;;;;4163826;28;20539;-45
2022/07/03 02:43:50;;;;;;;5.18;1.20;;;19.20;99.90;;;;;;4163548;28;20052;-44
2022/07/03 02:49:48;;;;;;;2.20;1.30;;;19.20;99.90;;;;;;4152580;28;20486;-44
2022/07/03 02:52:24;;;;;;;4.15;1.50;;;19.20;99.90;;;;;;4153963;28;20061;-45
2022/07/03 02:54:47;;;;;;;3.10;2.17;;;19.10;99.90;;;;;;4147027;28;20081;-45
2022/07/03 02:57:09;;;;;;;1.98;1.40;;;19.00;99.90;;;;;;4147204;28;20064;-44
2022/07/03 02:59:48;;;;;;;2.10;1.65;;;18.90;99.90;;;;;;4147114;28;20529;-45
2022/07/03 03:02:38;;;;;;;4.57;1.77;;;19.00;99.90;;;;;;4146993;28;20057;-45
2022/07/03 03:05:20;;;;;;;3.80;1.50;;;18.90;99.90;;;;;;4147076;28;20099;-44
2022/07/03 03:07:49;;;;;;;2.65;1.52;;;18.90;99.90;;;;;;4153426;28;20052;-45
2022/07/03 03:10:12;;;;;;;3.00;1.40;;;18.90;99.90;;;;;;4163483;28;20444;-44
2022/07/03 03:12:41;;;;;;;1.63;1.52;;;18.70;99.90;;;;;;4163399;28;20052;-44
2022/07/03 03:15:04;;;;;;;3.15;1.90;;;18.70;99.90;;;;;;4162671;28;20442;-47
2022/07/03 03:17:35;;;;;;;4.07;1.42;;;18.70;99.90;;;;;;4162885;28;20108;-46
2022/07/03 03:19:57;;;;;;;2.85;1.80;;;18.70;99.90;;;;;;4162836;28;20420;-44
2022/07/03 03:22:20;;;;;;;2.75;1.17;;;18.70;99.90;;;;;;4161973;28;20059;-45
2022/07/03 03:24:42;;;;;;;3.75;2.03;;;18.70;99.90;;;;;;4163207;28;20122;-44
2022/07/03 03:27:03;;;;;;;3.33;1.88;;;18.60;99.90;;;;;;4163135;28;20448;-47
2022/07/03 03:29:24;;;;;;;2.78;1.58;;;18.50;99.90;;;;;;4163088;28;20095;-44
2022/07/03 03:31:45;;;;;;;5.93;1.50;;;18.50;99.90;;;;;;4162026;28;20053;-45
2022/07/03 03:34:07;;;;;;;1.73;1.42;;;18.60;99.90;;;;;;4162740;28;20056;-45
2022/07/03 03:36:29;;;;;;;2.80;1.77;;;18.50;99.90;;;;;;4163139;28;20133;-44
2022/07/03 03:38:50;;;;;;;3.17;1.20;;;18.50;99.90;;;;;;4162878;28;20056;-44
2022/07/03 03:41:12;;;;;;;2.67;1.88;;;18.40;99.90;;;;;;4162953;28;20057;-44
2022/07/03 03:43:38;;;;;;;3.95;2.00;;;18.40;99.90;;;;;;4162431;28;20047;-46
2022/07/03 03:46:00;;;;;;;6.80;3.78;;;18.40;99.90;;;;;;4163038;28;20056;-46
2022/07/03 03:48:20;;;;;;;2.58;1.83;;;18.40;99.90;;;;;;4162642;28;20176;-44
2022/07/03 03:50:44;;;;;;;3.40;1.60;;;18.50;99.90;;;;;;4161122;28;20419;-45
2022/07/03 03:53:05;;;;;;;7.22;2.25;;;18.50;99.90;;;;;;4162791;28;20389;-44
2022/07/03 03:55:26;;;;;;;1.95;1.85;;;18.30;99.90;;;;;;4162444;28;20084;-46
2022/07/03 03:57:47;;;;;;;6.18;1.90;;;18.30;99.90;;;;;;4154539;28;20111;-46
2022/07/03 04:00:09;;;;;;;2.15;1.88;;;18.20;99.90;;;;;;4146374;28;20520;-45
2022/07/03 04:02:30;;;;;;;4.25;2.28;;;18.10;99.90;;;;;;4146275;28;20053;-44
2022/07/03 04:05:29;;;;;;;3.55;2.50;;;18.00;99.90;;;;;;4245102;27;20404;-87
2022/07/03 04:07:50;;;;;;;4.32;2.60;;;18.00;99.90;;;;;;4212855;28;20113;-87
2022/07/03 04:10:38;;;;;;;3.00;1.85;;;18.10;99.90;;;;;;4213112;28;20503;-87
2022/07/03 04:12:59;;;;;;;4.05;2.65;;;18.00;99.90;;;;;;4127280;28;20045;-88
2022/07/03 04:15:47;;;;;;;3.67;1.90;;;18.00;99.90;;;;;;4113447;28;20066;-88
2022/07/03 04:18:10;;;;;;;2.38;2.28;;;18.20;99.90;;;;;;4050376;29;20140;-88
2022/07/03 04:21:00;;;;;;;3.30;3.08;;;18.20;99.90;;;;;;4050569;29;20140;-88
2022/07/03 04:23:24;;;;;;;4.53;1.95;;;18.20;99.90;;;;;;4032974;29;20059;-88
2022/07/03 04:25:45;;;;;;;3.08;2.30;;;18.10;99.90;;;;;;4019505;29;20086;-88
2022/07/03 04:28:07;;;;;;;2.10;2.00;;;18.10;99.90;;;;;;4019749;29;20056;-87
2022/07/03 04:30:39;;;;;;;2.65;2.42;;;18.10;99.90;;;;;;4017078;29;20415;-87
2022/07/03 04:33:01;;;;;;;2.38;2.22;;;18.20;99.90;;;;;;4025652;29;20060;-87
2022/07/03 04:35:22;;;;;;;5.53;1.60;;;18.10;99.90;;;;;;4032247;29;20533;-87
2022/07/03 04:38:12;;;;;;;3.73;2.40;;;18.20;99.90;;;;;;4019575;29;20060;-88
2022/07/03 04:40:34;;;;;;;4.13;2.05;;;18.20;99.90;;;;;;3987002;29;20290;-88
2022/07/03 04:43:00;;;;;;;5.80;3.00;;;18.20;99.90;;;;;;3973818;29;20165;-86
2022/07/03 04:45:22;;;;;;;2.13;1.83;;;18.10;99.90;;;;;;3987025;29;20065;-87
2022/07/03 04:47:44;;;;;;;2.90;2.65;;;18.10;99.90;;;;;;3986583;29;20473;-87
2022/07/03 04:50:07;;;;;;;7.53;3.53;;;18.10;99.90;;;;;;3980931;29;20110;-87
2022/07/03 04:52:54;;;;;;;7.75;3.92;;;18.10;99.90;;;;;;3997216;29;20130;-87
2022/07/03 04:55:31;;;;;;;5.47;2.63;;;18.20;99.90;;;;;;3996397;29;20120;-87
2022/07/03 04:57:52;;;;;;;;;;;18.30;99.90;;;;;;4012467;29;20064;-87
2022/07/03 05:00:13;;;;;;;3.08;2.95;;;18.30;99.90;;;;;;4051571;29;19934;-87
2022/07/03 05:02:35;;;;;;;3.42;2.40;;;18.40;99.90;;;;;;4078888;29;20058;-88
2022/07/03 05:04:56;;;;;;;5.55;2.78;;;18.50;99.90;;;;;;4076079;29;20059;-87
2022/07/03 05:07:18;;;;;;;3.33;2.88;;;18.50;99.90;;;;;;4062978;29;20056;-87
2022/07/03 05:09:40;;;;;;;3.70;3.35;;;18.50;99.90;;;;;;4062545;29;20151;-88
2022/07/03 05:12:27;;;;;;;;;;;18.60;99.90;;;;;;4063152;29;20055;-86
2022/07/03 05:14:50;;;;;;;3.70;2.58;;;18.60;99.90;;;;;;4063065;29;19930;-89
2022/07/03 05:17:43;;;;;;;2.67;2.47;;;18.60;99.90;;;;;;4073859;28;20061;-90
2022/07/03 05:22:45;;;;;;;3.10;2.45;;;18.70;99.90;;;;;;4083711;29;20058;-89
2022/07/03 05:25:08;;;;;;;4.15;2.38;;;18.80;99.90;;;;;;4070401;29;20076;-89
2022/07/03 05:27:30;;;;;;;2.72;2.47;;;18.90;99.90;;;;;;4083724;29;20051;-89
2022/07/03 05:29:52;;;;;;;3.67;2.15;;;18.90;99.90;;;;;;4079230;29;20122;-90
2022/07/03 05:32:13;;;;;;;2.65;2.15;;;19.00;99.90;;;;;;4126797;28;20097;-88
2022/07/03 05:35:01;;;;;;;5.22;2.97;;;19.00;99.90;;;;;;4134127;28;20049;-88
2022/07/03 05:37:22;;;;;;;5.13;2.67;;;19.00;99.90;;;;;;4089931;29;20075;-89
2022/07/03 05:40:18;;;;;;;6.72;2.28;;;19.10;99.90;;;;;;4070473;29;20207;-88
2022/07/03 05:42:42;;;;;;;3.78;1.92;;;19.10;99.90;;;;;;4036682;29;20055;-89
2022/07/03 05:45:04;;;;;;;6.15;2.58;;;19.20;99.90;;;;;;4037123;29;20060;-88
2022/07/03 05:47:27;;;;;;;3.40;1.67;;;19.30;99.90;;;;;;4025506;29;20115;-89
2022/07/03 05:50:16;;;;;;;4.57;2.30;;;19.50;99.90;;;;;;4006118;29;20056;-89
2022/07/03 05:53:05;;;;;;;2.55;2.03;;;19.60;99.90;;;;;;3964091;29;20984;-89
2022/07/03 05:55:25;;;;;;;4.07;1.95;;;19.80;99.90;;;;;;3976733;29;20103;-89
2022/07/03 05:58:34;;;;;;;7.20;1.70;;;20.00;99.90;;;;;;3965103;29;20054;-89
2022/07/03 06:00:54;;;;;;;8.48;3.17;;;20.40;99.90;;;;;;3997116;29;20099;-88
2022/07/03 06:03:49;;;;;;;3.25;2.00;;;20.50;99.90;;;;;;3988728;29;20452;-89
2022/07/03 06:06:09;;;;;;;3.53;2.45;;;20.70;99.90;;;;;;3992824;29;20107;-89
2022/07/03 06:08:29;;;;;;;5.90;2.80;;;20.80;99.90;;;;;;3992696;29;20045;-89
2022/07/03 06:10:48;;;;;;;3.60;2.03;;;21.00;99.90;;;;;;3991010;29;20044;-89
2022/07/03 06:13:10;;;;;;;2.78;1.40;;;21.40;99.90;;;;;;3977568;29;20046;-88
2022/07/03 06:16:07;;;;;;;2.30;1.67;;;21.70;99.90;;;;;;4005570;29;20179;-88
2022/07/03 06:18:53;;;;;;;2.00;1.48;;;21.90;99.90;;;;;;4000565;29;20053;-88
2022/07/03 06:21:14;;;;;;;1.92;1.80;;;21.80;99.90;;;;;;4002500;29;20052;-89
2022/07/03 06:24:00;;;;;;;5.00;1.55;;;21.70;99.90;;;;;;3994705;29;20077;-89
2022/07/03 06:26:21;;;;;;;3.05;1.98;;;21.70;99.90;;;;;;3947447;30;20115;-89
2022/07/03 06:28:41;;;;;;;2.35;1.83;;;21.80;99.90;;;;;;3940623;30;20567;-89
2022/07/03 06:31:01;;;;;;;3.08;1.67;;;22.00;99.90;;;;;;3913167;30;20110;-89
2022/07/03 06:33:22;;;;;;;8.30;1.70;;;22.10;99.90;;;;;;3872817;30;20125;-89
2022/07/03 06:35:43;;;;;;;2.10;1.38;;;22.60;99.90;;;;;;3888976;30;20048;-89
2022/07/03 06:38:03;;;;;;;6.15;1.30;;;22.50;99.90;;;;;;3927216;30;20079;-89
2022/07/03 06:40:23;;;;;;;4.60;1.90;;;22.50;99.90;;;;;;3926828;30;20051;-89
2022/07/03 06:42:44;;;;;;;6.30;1.33;;;22.60;99.90;;;;;;3927226;30;20097;-89
2022/07/03 06:45:05;;;;;;;3.50;1.73;;;22.60;99.90;;;;;;3956833;30;20872;-89
2022/07/03 06:47:26;;;;;;;3.90;1.42;;;22.80;99.90;;;;;;3941831;30;20058;-88
2022/07/03 06:50:14;;;;;;;2.95;1.02;;;22.80;99.90;;;;;;3942869;30;20059;-88
2022/07/03 06:52:49;;;;;;;2.58;1.20;;;22.90;99.90;;;;;;3960956;29;20094;-89
2022/07/03 06:55:10;;;;;;;3.28;1.23;;;23.00;99.90;;;;;;3962680;29;20149;-88
2022/07/03 06:57:33;;;;;;;5.15;0.90;;;23.40;99.90;;;;;;3980744;29;20060;-88
2022/07/03 07:00:22;;;;;;;3.60;0.90;;;24.00;99.90;;;;;;4013464;29;20057;-89
2022/07/03 07:02:44;;;;;;;4.07;1.15;;;24.20;99.90;;;;;;4011565;29;20739;-89
2022/07/03 07:05:05;;;;;;;4.35;0.90;;;24.30;99.90;;;;;;4053299;29;20064;-89
2022/07/03 07:07:27;;;;;;;3.55;1.67;;;24.90;99.90;;;;;;4038345;29;20060;-89
2022/07/03 07:09:48;;;;;;;2.00;1.15;;;25.10;99.90;;;;;;4022181;29;20102;-89
2022/07/03 07:12:37;;;;;;;3.92;1.00;;;25.00;99.90;;;;;;4056102;29;20055;-89
2022/07/03 07:15:00;;;;;;;3.67;1.00;;;25.50;99.90;;;;;;4017844;29;20418;-89
2022/07/03 07:17:21;;;;;;;2.95;1.00;;;25.20;99.90;;;;;;4021349;29;20061;-89
2022/07/03 07:20:10;;;;;;;3.70;0.80;;;25.70;99.90;;;;;;3999638;29;20515;-90
2022/07/03 07:22:33;;;;;;;14.10;2.40;;;26.10;99.90;;;;;;3979009;29;20081;-90
2022/07/03 07:24:56;;;;;;;25.52;3.10;;;26.60;99.90;;;;;;3979072;29;20096;-90
2022/07/03 07:27:19;;;;;;;;;;;26.90;99.90;;;;;;3990073;29;20068;-90
2022/07/03 07:30:21;;;;;;;11.40;2.45;;;26.60;99.90;;;;;;3977096;29;19931;-87
2022/07/03 07:32:42;;;;;;;4.93;1.23;;;26.70;99.90;;;;;;3988714;29;20061;-88
2022/07/03 07:35:05;;;;;;;9.00;1.73;;;26.60;99.90;;;;;;3974217;29;20111;-87
2022/07/03 07:37:27;;;;;;;50.67;3.47;;;26.90;99.90;;;;;;3989181;29;20107;-88
2022/07/03 07:39:49;;;;;;;3.17;0.70;;;27.10;99.90;;;;;;4017736;29;20141;-87
2022/07/03 07:42:10;;;;;;;1.67;0.73;;;27.20;99.90;;;;;;4034353;29;20639;-87
2022/07/03 07:44:57;;;;;;;2.90;0.70;;;27.10;99.90;;;;;;4034616;29;20055;-87
2022/07/03 07:47:46;;;;;;;1.50;0.75;;;27.40;99.90;;;;;;4049903;29;20104;-87
2022/07/03 07:50:07;;;;;;;3.55;0.80;;;27.60;99.90;;;;;;4035807;29;20044;-87
2022/07/03 07:52:26;;;;;;;1.38;0.77;;;27.70;99.90;;;;;;4048928;29;20077;-87
2022/07/03 07:55:02;;;;;;;0.90;0.70;;;27.80;99.90;;;;;;4049393;29;20576;-87
2022/07/03 07:57:55;;;;;;;;;;;28.40;99.90;;;;;;4050494;29;20113;-87
2022/07/03 08:05:35;;;;;;;3.40;1.05;;;28.50;99.90;;;;;;4021543;29;19919;-87
2022/07/03 08:06:03;;;;;;;3.28;0.85;;;28.90;99.90;;;;;;3975497;29;20062;-88
2022/07/03 08:08:51;;;;;;;2.58;0.93;;;29.30;99.90;;;;;;3982890;29;20114;-87
2022/07/03 08:23:21;;;;;;;0.85;0.70;;;30.00;98.50;;;;;;4130842;28;20523;-46
2022/07/03 08:25:41;;;;;;;4.22;0.70;;;30.10;97.70;;;;;;4133645;28;20049;-46
2022/07/03 08:28:02;;;;;;;66.13;10.10;;;30.50;99.20;;;;;;4137238;28;20101;-47
2022/07/03 08:30:23;;;;;;;1.60;0.60;;;30.90;97.30;;;;;;4142533;28;20077;-45
2022/07/03 08:32:49;;;;;;;2.90;0.75;;;30.80;96.80;;;;;;4126190;28;20073;-46
2022/07/03 08:35:09;;;;;;;2.92;0.70;;;31.10;96.30;;;;;;4135801;28;20474;-46
2022/07/03 08:37:31;;;;;;;20.08;1.48;;;31.10;96.20;;;;;;4140584;28;20720;-47
2022/07/03 08:39:52;;;;;;;1.00;0.50;;;31.30;94.90;;;;;;4127415;28;20053;-47
2022/07/03 08:42:15;;;;;;;1.70;0.50;;;31.40;94.20;;;;;;4130422;28;20307;-45
2022/07/03 08:44:37;;;;;;;1.58;0.38;;;31.40;92.80;;;;;;4140638;28;20393;-46
2022/07/03 08:46:59;;;;;;;0.75;0.40;;;31.50;91.20;;;;;;4127662;28;20100;-46
2022/07/03 08:49:21;;;;;;;1.42;0.47;;;31.70;89.00;;;;;;4130463;28;20713;-44
2022/07/03 08:51:44;;;;;;;0.50;0.40;;;31.90;89.70;;;;;;4132296;28;20662;-48
2022/07/03 08:54:06;;;;;;;2.45;0.50;;;32.10;91.10;;;;;;4136137;28;20189;-46
2022/07/03 08:56:27;;;;;;;26.98;1.50;;;32.40;89.90;;;;;;4139020;28;20048;-46
2022/07/03 08:58:48;;;;;;;10.43;0.68;;;32.50;81.70;;;;;;4130426;28;20730;-45
2022/07/03 09:01:09;;;;;;;0.90;0.30;;;32.60;80.50;;;;;;4130350;28;20420;-45
2022/07/03 09:03:31;;;;;;;3.13;0.40;;;32.90;82.30;;;;;;4136375;28;20134;-45
2022/07/03 09:05:52;;;;;;;0.43;0.30;;;33.00;77.90;;;;;;4146791;28;20153;-46
2022/07/03 09:08:15;;;;;;;3.45;0.40;;;33.00;78.10;;;;;;4152459;28;20059;-45
2022/07/03 09:10:36;;;;;;;0.73;0.40;;;33.00;77.40;;;;;;4138024;28;20430;-45
2022/07/03 09:12:57;;;;;;;0.70;0.30;;;33.00;79.20;;;;;;4130380;28;20060;-46
2022/07/03 09:15:17;;;;;;;1.02;0.38;;;33.10;77.30;;;;;;4133354;28;20106;-46
2022/07/03 09:17:38;;;;;;;7.88;0.40;;;32.90;77.20;;;;;;4144038;28;20057;-45
2022/07/03 09:20:01;;;;;;;2.97;0.40;;;33.30;82.40;;;;;;4151676;28;20056;-46
2022/07/03 09:22:27;;;;;;;0.55;0.35;;;33.70;78.40;;;;;;4133077;28;20140;-45
2022/07/03 09:24:50;;;;;;;2.25;0.30;;;33.50;80.20;;;;;;4113947;28;20057;-45
2022/07/03 09:27:15;;;;;;;0.73;0.40;;;34.00;78.80;;;;;;4114169;28;20612;-47
2022/07/03 09:29:36;;;;;;;1.55;0.30;;;33.90;78.30;;;;;;4124672;28;20132;-46
2022/07/03 09:31:56;;;;;;;1.85;0.30;;;34.20;78.60;;;;;;4130125;28;20048;-46
2022/07/03 09:34:22;;;;;;;1.38;0.40;;;34.40;76.20;;;;;;4130098;28;20058;-48
2022/07/03 09:36:48;;;;;;;2.35;0.30;;;34.20;77.10;;;;;;4117584;28;20425;-45
2022/07/03 09:39:26;;;;;;;1.48;0.30;;;34.10;74.90;;;;;;4118762;28;20069;-48
2022/07/03 09:42:02;;;;;;;2.25;0.30;;;34.00;76.80;;;;;;4122474;28;20057;-46
2022/07/03 09:44:36;;;;;;;0.80;0.32;;;34.10;76.10;;;;;;4129801;28;20053;-47
2022/07/03 09:47:28;;;;;;;0.75;0.30;;;34.20;76.50;;;;;;4114591;28;20052;-46
2022/07/03 09:50:02;;;;;;;1.80;0.35;;;34.40;74.50;;;;;;4069450;29;20063;-45
2022/07/03 09:52:38;;;;;;;0.50;0.30;;;34.30;74.50;;;;;;4065384;29;20439;-45
2022/07/03 09:55:20;;;;;;;0.43;0.30;;;34.00;71.10;;;;;;4062874;29;20139;-45
2022/07/03 09:57:51;;;;;;;0.50;0.30;;;34.20;75.60;;;;;;4063478;29;20448;-48
2022/07/03 10:00:22;;;;;;;0.30;0.30;;;34.50;72.00;;;;;;4063523;29;20111;-46
2022/07/03 10:03:02;;;;;;;0.38;0.30;;;34.70;71.90;;;;;;4055357;29;20601;-49
2022/07/03 10:05:25;;;;;;;1.45;0.40;;;34.00;70.60;;;;;;4062225;29;20444;-48
2022/07/03 10:07:57;;;;;;;0.95;0.30;;;34.60;71.10;;;;;;4063300;29;20690;-47
2022/07/03 10:10:21;;;;;;;;;;;34.50;69.30;;;;;;4057955;29;20085;-46
2022/07/03 10:12:44;;;;;;;0.68;0.30;;;34.40;69.10;;;;;;4062652;29;20000;-47
2022/07/03 10:15:06;;;;;;;0.40;0.30;;;34.50;69.50;;;;;;4062614;29;20784;-46
2022/07/03 10:17:26;;;;;;;1.13;0.32;;;34.40;69.80;;;;;;4064262;29;20115;-45
2022/07/03 10:19:47;;;;;;;1.58;0.30;;;34.80;71.90;;;;;;4063344;29;20062;-46
2022/07/03 10:22:18;;;;;;;0.63;0.40;;;34.70;68.20;;;;;;4065911;29;20179;-44
2022/07/03 10:24:42;;;;;;;1.08;0.40;;;35.10;70.50;;;;;;4041899;29;20144;-45
2022/07/03 10:27:04;;;;;;;0.35;0.20;;;35.30;71.60;;;;;;4102623;28;20146;-46
2022/07/03 10:29:27;;;;;;;1.33;0.30;;;35.30;69.70;;;;;;4112898;28;20153;-45
2022/07/03 10:31:50;;;;;;;0.45;0.22;;;35.40;72.50;;;;;;4113265;28;20584;-47
2022/07/03 10:34:11;;;;;;;1.55;0.20;;;35.90;68.70;;;;;;4097120;29;20074;-47
2022/07/03 10:36:36;;;;;;;0.73;0.30;;;35.80;69.80;;;;;;4107530;28;20054;-45
2022/07/03 10:39:00;;;;;;;6.55;0.40;;;35.20;68.10;;;;;;4112818;28;20113;-45
2022/07/03 10:46:48;;;;;;;0.30;0.30;;;35.80;73.70;;;;;;4096960;29;20054;-47
2022/07/03 10:49:15;;;;;;;1.45;0.30;;;35.60;65.70;;;;;;4107105;28;20069;-47
2022/07/03 10:51:44;;;;;;;1.27;0.22;;;35.80;66.60;;;;;;4112704;28;20529;-47
2022/07/03 10:54:17;;;;;;;0.93;0.30;;;35.40;66.30;;;;;;4112738;28;20640;-47
2022/07/03 10:57:02;;;;;;;2.40;0.30;;;35.80;66.50;;;;;;4108544;28;20054;-46
2022/07/03 10:59:44;;;;;;;0.90;0.30;;;35.60;69.80;;;;;;4110046;28;20465;-46
2022/07/03 11:02:34;;;;;;;1.45;0.20;;;36.00;66.50;;;;;;4107157;28;20053;-45
2022/07/03 11:05:00;;;;;;;1.75;0.30;;;36.40;68.40;;;;;;4112256;28;20133;-49
2022/07/03 11:07:24;;;;;;;0.40;0.20;;;36.50;67.60;;;;;;4112559;28;20050;-47
2022/07/03 11:09:45;;;;;;;0.22;0.20;;;36.70;64.50;;;;;;4097604;28;20859;-46
2022/07/03 11:12:06;;;;;;;1.27;0.20;;;37.10;68.60;;;;;;4107210;28;20058;-47
2022/07/03 11:14:28;;;;;;;0.30;0.30;;;37.20;67.50;;;;;;4111923;28;20058;-47
2022/07/03 11:16:49;;;;;;;0.47;0.20;;;37.00;64.10;;;;;;4111618;28;20422;-45
2022/07/03 11:19:10;;;;;;;0.20;0.20;;;36.80;63.30;;;;;;4109601;28;20430;-47
2022/07/03 11:21:36;;;;;;;1.08;0.73;;;36.30;63.60;;;;;;4112103;28;20057;-46
2022/07/03 11:24:25;;;;;;;0.40;0.20;;;36.40;66.50;;;;;;4112389;28;20124;-45
2022/07/03 11:26:45;;;;;;;0.30;0.30;;;36.60;64.80;;;;;;4107200;28;20079;-45
2022/07/03 11:29:05;;;;;;;0.20;0.20;;;37.30;65.00;;;;;;4109710;28;20065;-47
2022/07/03 11:31:27;;;;;;;0.68;0.30;;;37.40;62.00;;;;;;4106714;28;20528;-47
2022/07/03 11:33:53;;;;;;;1.05;0.20;;;37.70;65.70;;;;;;4096912;28;20130;-48
2022/07/03 11:36:17;;;;;;;0.30;0.30;;;37.80;63.70;;;;;;4111932;28;20077;-47
2022/07/03 11:38:38;;;;;;;0.50;0.20;;;37.90;63.80;;;;;;4102751;28;20087;-48
2022/07/03 11:41:00;;;;;;;1.13;0.20;;;37.90;63.20;;;;;;4101451;28;20118;-46
2022/07/03 11:43:21;;;;;;;0.63;0.40;;;37.60;64.20;;;;;;4103545;28;20138;-48
2022/07/03 11:45:43;;;;;;;0.32;0.20;;;37.90;64.10;;;;;;4103831;28;20065;-47
2022/07/03 11:48:09;;;;;;;0.88;0.20;;;37.40;63.70;;;;;;4111365;28;20121;-48
2022/07/03 11:50:44;;;;;;;0.20;0.20;;;37.20;62.50;;;;;;4105832;28;20102;-46
2022/07/03 11:53:19;;;;;;;1.08;0.30;;;36.90;64.40;;;;;;4105971;28;20054;-46
2022/07/03 11:55:52;;;;;;;0.30;0.20;;;36.80;62.20;;;;;;4108152;28;20066;-46
2022/07/03 11:58:13;;;;;;;0.28;0.20;;;36.90;63.50;;;;;;4104415;28;20061;-46
2022/07/03 12:00:33;;;;;;;1.02;0.20;;;37.30;62.00;;;;;;4096301;29;20057;-46
2022/07/03 12:02:54;;;;;;;1.00;0.23;;;37.70;62.90;;;;;;4084007;28;20054;-47
2022/07/03 12:05:15;;;;;;;0.52;0.30;;;37.80;60.70;;;;;;4104048;28;20062;-48
2022/07/03 12:07:43;;;;;;;0.45;0.30;;;37.60;61.90;;;;;;4102964;28;20133;-47
2022/07/03 12:10:04;;;;;;;0.30;0.20;;;37.30;61.60;;;;;;4105294;28;20050;-48
2022/07/03 12:12:25;;;;;;;0.40;0.20;;;37.40;65.60;;;;;;4101166;28;20368;-48
2022/07/03 12:14:47;;;;;;;1.65;0.28;;;37.00;59.80;;;;;;4106557;28;20054;-47
2022/07/03 12:17:14;;;;;;;0.90;0.20;;;37.20;61.10;;;;;;4097302;28;20054;-47
2022/07/03 12:19:35;;;;;;;0.65;0.20;;;37.70;59.70;;;;;;4105189;28;20728;-47
2022/07/03 12:21:56;;;;;;;0.30;0.20;;;38.00;60.30;;;;;;4108022;28;20085;-46
2022/07/03 12:24:17;;;;;;;0.98;0.22;;;37.70;60.60;;;;;;4112925;28;20300;-46
2022/07/03 12:26:38;;;;;;;0.52;0.30;;;37.90;62.00;;;;;;4122433;28;20521;-48
2022/07/03 12:29:00;;;;;;;1.83;0.30;;;37.70;59.30;;;;;;4124557;28;20077;-47
2022/07/03 12:31:21;;;;;;;0.25;0.25;;;37.20;59.40;;;;;;4131368;28;20581;-45
2022/07/03 12:33:42;;;;;;;1.57;0.27;;;37.10;59.60;;;;;;4130995;28;20058;-49
2022/07/03 12:36:04;;;;;;;0.35;0.30;;;36.80;60.70;;;;;;4121520;28;20698;-48
2022/07/03 12:38:29;;;;;;;0.30;0.20;;;37.20;63.90;;;;;;4123126;28;20061;-45
2022/07/03 12:41:19;;;;;;;0.30;0.28;;;37.80;61.30;;;;;;4114768;28;20053;-46
2022/07/03 12:43:42;;;;;;;0.88;0.20;;;37.10;59.90;;;;;;4063710;29;20131;-49
2022/07/03 12:46:03;;;;;;;0.77;0.20;;;37.70;61.30;;;;;;4058442;29;20260;-46
2022/07/03 12:48:23;;;;;;;0.43;0.20;;;38.00;61.10;;;;;;4064944;29;20136;-48
2022/07/03 12:50:44;;;;;;;1.08;0.20;;;38.20;60.00;;;;;;4078141;29;20051;-48
2022/07/03 12:53:06;;;;;;;0.52;0.30;;;37.50;59.00;;;;;;4065567;29;20055;-48
2022/07/03 12:55:28;;;;;;;0.30;0.30;;;37.60;59.70;;;;;;4064945;29;20605;-48
2022/07/03 13:00:28;;;;;;;0.30;0.30;;;37.40;58.90;;;;;;4063043;29;20136;-46
2022/07/03 13:02:49;;;;;;;2.63;0.30;;;37.50;59.50;;;;;;4064837;29;20080;-49
2022/07/03 13:05:23;;;;;;;1.83;0.20;;;37.80;62.30;;;;;;4053173;29;20123;-46
2022/07/03 13:07:48;;;;;;;2.53;0.30;;;38.00;58.60;;;;;;4060983;29;20062;-46
2022/07/03 13:10:09;;;;;;;1.20;0.20;;;37.80;58.40;;;;;;4050993;29;20100;-46
2022/07/03 13:12:30;;;;;;;1.20;0.40;;;37.80;59.20;;;;;;4063540;29;20471;-49
2022/07/03 13:14:58;;;;;;;0.30;0.30;;;37.60;57.90;;;;;;4054128;29;20097;-47
2022/07/03 13:17:18;;;;;;;0.22;0.20;;;37.40;58.80;;;;;;4063170;29;20054;-48